Time;durP1;ratioP1;P1;durP2;ratioP2;P2;SDS_P1;SDS_P2;PMS_P1;PMS_P2;Temp;Humidity;BMP_temperature;BMP_pressure;BME280_temperature;BME280_humidity;BME280_pressure;Samples;Min_cycle;Max_cycle;Signal;HPM_P1;HPM_P2
2023/02/02 00:00:29;;;;;;;15.10;3.22;;;;;;;;;;5114307;28;20655;-66
2023/02/02 00:02:57;;;;;;;7.13;3.13;;;;;;;;;;5114644;28;20193;-66
2023/02/02 00:05:24;;;;;;;6.55;2.88;;;;;;;;;;5114568;28;20192;-67
2023/02/02 00:07:51;;;;;;;10.48;2.10;;;;;;;;;;5113751;28;20196;-65
2023/02/02 00:10:20;;;;;;;9.73;2.00;;;;;;;;;;5107047;28;20333;-66
2023/02/02 00:12:47;;;;;;;20.48;3.15;;;;;;;;;;5105688;28;20189;-66
2023/02/02 00:15:14;;;;;;;15.63;2.47;;;;;;;;;;5112970;28;20664;-66
2023/02/02 00:17:41;;;;;;;8.90;2.90;;;;;;;;;;5113292;28;20676;-66
2023/02/02 00:20:09;;;;;;;10.38;2.33;;;;;;;;;;5113447;28;20195;-66
2023/02/02 00:22:36;;;;;;;1.95;1.75;;;;;;;;;;5113685;28;20204;-66
2023/02/02 00:25:04;;;;;;;9.82;2.15;;;;;;;;;;5113549;28;20228;-65
2023/02/02 00:27:32;;;;;;;10.23;2.42;;;;;;;;;;5113945;28;20603;-66
2023/02/02 00:29:59;;;;;;;9.82;2.55;;;;;;;;;;5113962;28;20194;-67
2023/02/02 00:32:27;;;;;;;9.50;2.97;;;;;;;;;;5113686;28;20199;-66
2023/02/02 00:34:54;;;;;;;6.07;2.13;;;;;;;;;;5114010;28;20211;-65
2023/02/02 00:37:21;;;;;;;5.50;2.20;;;;;;;;;;5113272;28;20195;-66
2023/02/02 00:39:48;;;;;;;14.65;2.17;;;;;;;;;;5113512;28;20279;-65
2023/02/02 00:42:15;;;;;;;9.20;2.40;;;;;;;;;;5114350;28;20195;-66
2023/02/02 00:47:29;;;;;;;8.98;2.33;;;;;;;;;;5113961;28;20178;-66
2023/02/02 00:49:56;;;;;;;7.47;2.40;;;;;;;;;;5113754;28;20199;-66
2023/02/02 00:52:23;;;;;;;11.50;2.17;;;;;;;;;;5113703;28;20554;-66
2023/02/02 00:54:50;;;;;;;6.13;1.90;;;;;;;;;;5114508;28;20199;-66
2023/02/02 00:57:17;;;;;;;6.68;2.08;;;;;;;;;;5124373;28;20226;-66
2023/02/02 00:59:46;;;;;;;6.85;2.40;;;;;;;;;;5134522;28;20191;-66
2023/02/02 01:02:13;;;;;;;4.28;1.88;;;;;;;;;;5127412;28;20227;-66
2023/02/02 01:04:41;;;;;;;7.05;2.35;;;;;;;;;;5113533;28;20226;-66
2023/02/02 01:07:08;;;;;;;12.85;2.33;;;;;;;;;;5113424;28;20191;-66
2023/02/02 01:09:35;;;;;;;4.03;1.77;;;;;;;;;;5117119;28;20192;-66
2023/02/02 01:12:02;;;;;;;3.45;1.80;;;;;;;;;;5114049;28;20202;-66
2023/02/02 01:14:29;;;;;;;16.95;2.10;;;;;;;;;;5113737;28;20656;-66
2023/02/02 01:16:58;;;;;;;7.40;2.47;;;;;;;;;;5113695;28;20205;-66
2023/02/02 01:19:26;;;;;;;5.15;2.20;;;;;;;;;;5113764;28;20535;-66
2023/02/02 01:21:53;;;;;;;7.75;2.75;;;;;;;;;;5117418;28;20198;-66
2023/02/02 01:24:21;;;;;;;7.45;2.15;;;;;;;;;;5117739;28;20220;-66
2023/02/02 01:26:48;;;;;;;7.13;2.10;;;;;;;;;;5118199;28;20203;-66
2023/02/02 01:29:15;;;;;;;6.57;2.10;;;;;;;;;;5117709;28;20194;-66
2023/02/02 01:31:42;;;;;;;6.28;2.10;;;;;;;;;;5117672;28;20203;-66
2023/02/02 01:34:11;;;;;;;2.45;1.52;;;;;;;;;;5117634;28;20202;-66
2023/02/02 01:36:38;;;;;;;6.22;2.10;;;;;;;;;;5117646;28;20279;-66
2023/02/02 01:39:05;;;;;;;6.82;2.50;;;;;;;;;;5117716;28;20200;-66
2023/02/02 01:41:32;;;;;;;9.50;3.03;;;;;;;;;;5117495;28;20201;-66
2023/02/02 01:44:00;;;;;;;9.60;2.80;;;;;;;;;;5116978;28;20223;-66
2023/02/02 01:46:29;;;;;;;11.52;2.83;;;;;;;;;;5117383;28;20192;-66
2023/02/02 01:48:59;;;;;;;7.43;3.17;;;;;;;;;;5117262;28;20250;-66
2023/02/02 01:51:30;;;;;;;9.55;3.00;;;;;;;;;;5117567;28;20223;-66
2023/02/02 01:53:58;;;;;;;9.88;2.88;;;;;;;;;;5116927;28;20219;-66
2023/02/02 01:56:27;;;;;;;4.05;2.60;;;;;;;;;;5116601;28;20231;-66
2023/02/02 01:58:55;;;;;;;13.43;4.72;;;;;;;;;;5116799;28;20259;-66
2023/02/02 02:01:22;;;;;;;17.23;3.60;;;;;;;;;;5119354;27;20194;-66
2023/02/02 02:03:49;;;;;;;7.72;3.53;;;;;;;;;;5117015;27;20656;-66
2023/02/02 02:06:18;;;;;;;9.48;3.35;;;;;;;;;;5116998;28;20200;-66
2023/02/02 02:08:53;;;;;;;10.60;3.17;;;;;;;;;;5120139;27;20220;-66
2023/02/02 02:11:20;;;;;;;16.77;3.83;;;;;;;;;;5116821;28;20187;-66
2023/02/02 02:16:36;;;;;;;7.50;3.33;;;;;;;;;;5116921;28;20209;-66
2023/02/02 02:19:09;;;;;;;11.77;3.63;;;;;;;;;;5116326;28;20192;-66
2023/02/02 02:28:11;;;;;;;20.35;4.47;;;;;;;;;;5116357;28;20203;-66
2023/02/02 02:30:42;;;;;;;20.70;5.80;;;;;;;;;;5115985;28;20184;-66
2023/02/02 02:33:14;;;;;;;10.13;3.53;;;;;;;;;;5115961;28;20189;-67
2023/02/02 02:35:43;;;;;;;9.05;3.58;;;;;;;;;;5116643;28;20189;-66
2023/02/02 02:38:14;;;;;;;15.50;3.97;;;;;;;;;;5116892;28;20192;-66
2023/02/02 02:40:43;;;;;;;11.07;3.65;;;;;;;;;;5116635;28;20191;-66
2023/02/02 02:43:13;;;;;;;6.45;3.28;;;;;;;;;;5116232;28;20206;-66
2023/02/02 02:45:43;;;;;;;11.45;4.57;;;;;;;;;;5115898;28;20211;-66
2023/02/02 02:48:12;;;;;;;12.23;3.55;;;;;;;;;;5116083;28;20286;-66
2023/02/02 02:50:39;;;;;;;13.65;4.20;;;;;;;;;;5116472;28;20198;-66
2023/02/02 02:53:08;;;;;;;10.85;4.85;;;;;;;;;;5116071;28;20199;-66
2023/02/02 02:55:39;;;;;;;16.05;4.57;;;;;;;;;;5115795;28;20200;-66
2023/02/02 02:58:10;;;;;;;12.25;3.75;;;;;;;;;;5116006;28;20289;-66
2023/02/02 03:00:42;;;;;;;10.65;3.70;;;;;;;;;;5116246;28;20181;-66
2023/02/02 03:03:14;;;;;;;17.73;4.38;;;;;;;;;;5118859;27;20202;-66
2023/02/02 03:05:49;;;;;;;14.73;4.35;;;;;;;;;;5115860;28;20208;-66
2023/02/02 03:08:21;;;;;;;16.13;4.35;;;;;;;;;;5117963;27;20195;-66
2023/02/02 03:10:48;;;;;;;13.43;4.38;;;;;;;;;;5116290;27;20199;-66
2023/02/02 03:13:16;;;;;;;10.50;5.00;;;;;;;;;;5115689;28;20192;-66
2023/02/02 03:15:43;;;;;;;14.35;4.55;;;;;;;;;;5115300;28;20254;-66
2023/02/02 03:18:12;;;;;;;11.38;3.78;;;;;;;;;;5115435;28;20192;-66
2023/02/02 03:20:39;;;;;;;17.13;5.22;;;;;;;;;;5115039;28;20293;-66
2023/02/02 03:23:06;;;;;;;14.55;5.22;;;;;;;;;;5115559;28;20200;-67
2023/02/02 03:25:34;;;;;;;14.68;4.53;;;;;;;;;;5114998;28;20212;-66
2023/02/02 03:28:01;;;;;;;11.70;4.45;;;;;;;;;;5115655;28;20196;-68
2023/02/02 03:30:28;;;;;;;13.10;4.88;;;;;;;;;;5115422;28;20203;-66
2023/02/02 03:32:56;;;;;;;12.38;4.20;;;;;;;;;;5115285;28;20189;-67
2023/02/02 03:35:25;;;;;;;11.98;4.97;;;;;;;;;;5114793;28;20238;-67
2023/02/02 03:37:52;;;;;;;9.35;3.60;;;;;;;;;;5115453;28;20193;-66
2023/02/02 03:40:19;;;;;;;16.85;5.35;;;;;;;;;;5115197;28;20200;-67
2023/02/02 03:42:46;;;;;;;12.70;4.20;;;;;;;;;;5114471;28;20211;-67
2023/02/02 03:45:13;;;;;;;12.13;4.53;;;;;;;;;;5114986;28;20220;-67
2023/02/02 03:47:41;;;;;;;19.60;4.95;;;;;;;;;;5114790;28;20201;-66
2023/02/02 03:50:08;;;;;;;8.80;4.50;;;;;;;;;;5114936;28;20234;-66
2023/02/02 03:52:37;;;;;;;24.63;5.93;;;;;;;;;;5115458;28;20645;-66
2023/02/02 03:55:05;;;;;;;9.57;4.50;;;;;;;;;;5114610;28;20366;-66
2023/02/02 03:57:32;;;;;;;18.80;5.47;;;;;;;;;;5115039;28;20238;-66
2023/02/02 03:59:59;;;;;;;16.15;4.43;;;;;;;;;;5114924;28;20196;-66
2023/02/02 04:02:26;;;;;;;15.05;4.28;;;;;;;;;;5117947;27;20642;-66
2023/02/02 04:04:53;;;;;;;25.50;5.38;;;;;;;;;;5114665;28;20590;-66
2023/02/02 04:07:21;;;;;;;16.88;4.00;;;;;;;;;;5114677;28;20192;-65
2023/02/02 04:09:49;;;;;;;14.45;4.72;;;;;;;;;;5129190;27;20192;-66
2023/02/02 04:12:16;;;;;;;15.13;5.93;;;;;;;;;;5134589;27;20192;-66
2023/02/02 04:14:43;;;;;;;26.20;6.13;;;;;;;;;;5134576;27;20196;-66
2023/02/02 04:17:11;;;;;;;16.23;6.10;;;;;;;;;;5134913;27;20190;-66
2023/02/02 04:19:38;;;;;;;10.73;4.35;;;;;;;;;;5134880;27;20229;-66
2023/02/02 04:22:05;;;;;;;9.70;4.97;;;;;;;;;;5134509;27;20207;-66
2023/02/02 04:24:32;;;;;;;18.80;6.47;;;;;;;;;;5134644;27;20195;-65
2023/02/02 04:27:01;;;;;;;13.32;5.60;;;;;;;;;;5134509;27;20195;-65
2023/02/02 04:29:28;;;;;;;9.88;5.32;;;;;;;;;;5134342;27;20195;-66
2023/02/02 04:31:55;;;;;;;24.10;6.60;;;;;;;;;;5134319;27;20195;-65
2023/02/02 04:34:22;;;;;;;12.60;5.93;;;;;;;;;;5134671;27;20239;-66
2023/02/02 04:36:50;;;;;;;11.13;6.30;;;;;;;;;;5134728;27;20187;-65
2023/02/02 04:39:17;;;;;;;13.38;5.75;;;;;;;;;;5134537;27;20294;-68
2023/02/02 04:41:44;;;;;;;11.20;5.07;;;;;;;;;;5134482;27;20536;-66
2023/02/02 04:44:15;;;;;;;17.42;6.15;;;;;;;;;;5134457;27;20202;-66
2023/02/02 04:46:42;;;;;;;14.95;5.85;;;;;;;;;;5134461;27;20320;-67
2023/02/02 04:49:10;;;;;;;15.38;4.40;;;;;;;;;;5134188;27;20649;-66
2023/02/02 04:51:37;;;;;;;14.75;4.70;;;;;;;;;;5131638;27;20209;-66
2023/02/02 04:54:05;;;;;;;11.68;4.22;;;;;;;;;;5133759;27;20557;-67
2023/02/02 04:56:32;;;;;;;9.30;5.10;;;;;;;;;;5128838;27;20226;-66
2023/02/02 04:58:59;;;;;;;18.40;5.00;;;;;;;;;;5099773;28;20192;-67
2023/02/02 05:01:29;;;;;;;10.32;4.15;;;;;;;;;;5092850;28;20201;-67
2023/02/02 05:03:56;;;;;;;6.05;4.10;;;;;;;;;;5093242;28;20765;-66
2023/02/02 05:06:24;;;;;;;5.00;3.00;;;;;;;;;;5092517;28;20221;-66
2023/02/02 05:08:51;;;;;;;13.82;4.70;;;;;;;;;;5093095;28;20193;-66
2023/02/02 05:11:19;;;;;;;10.00;4.47;;;;;;;;;;5092678;28;20286;-67
2023/02/02 05:13:47;;;;;;;8.63;4.78;;;;;;;;;;5092673;28;20203;-67
2023/02/02 05:16:14;;;;;;;9.90;4.78;;;;;;;;;;5092366;28;20283;-68
2023/02/02 05:18:43;;;;;;;11.63;4.38;;;;;;;;;;5092912;28;20201;-66
2023/02/02 05:21:10;;;;;;;9.48;3.30;;;;;;;;;;5092767;28;20205;-67
2023/02/02 05:23:38;;;;;;;19.67;4.07;;;;;;;;;;5093044;28;20208;-67
2023/02/02 05:26:05;;;;;;;6.05;3.40;;;;;;;;;;5092788;28;20216;-68
2023/02/02 05:28:34;;;;;;;6.20;3.67;;;;;;;;;;5092891;28;20506;-68
2023/02/02 05:31:01;;;;;;;9.35;3.67;;;;;;;;;;5093422;28;20196;-71
2023/02/02 05:33:28;;;;;;;7.13;4.15;;;;;;;;;;5092995;28;20602;-65
2023/02/02 05:35:57;;;;;;;7.15;4.07;;;;;;;;;;5092023;28;20211;-65
2023/02/02 05:38:24;;;;;;;8.13;3.78;;;;;;;;;;5092427;28;20196;-65
2023/02/02 05:40:51;;;;;;;6.40;3.80;;;;;;;;;;5100662;28;20531;-65
2023/02/02 05:43:19;;;;;;;12.48;4.53;;;;;;;;;;5093298;28;20196;-66
2023/02/02 05:45:46;;;;;;;12.38;5.03;;;;;;;;;;5092747;28;20265;-66
2023/02/02 05:48:13;;;;;;;9.68;3.80;;;;;;;;;;5092027;28;20204;-66
2023/02/02 05:50:41;;;;;;;11.65;5.60;;;;;;;;;;5092529;28;20191;-66
2023/02/02 05:53:10;;;;;;;12.73;4.13;;;;;;;;;;5092949;28;20207;-66
2023/02/02 05:55:38;;;;;;;10.38;4.72;;;;;;;;;;5092389;28;20564;-66
2023/02/02 05:58:05;;;;;;;9.82;5.25;;;;;;;;;;5110667;28;20667;-66
2023/02/02 06:00:32;;;;;;;11.10;5.05;;;;;;;;;;5112886;28;20200;-66
2023/02/02 06:02:59;;;;;;;7.85;4.90;;;;;;;;;;5112781;28;20203;-67
2023/02/02 06:05:26;;;;;;;6.22;4.45;;;;;;;;;;5112714;28;20220;-66
2023/02/02 06:07:53;;;;;;;7.75;4.75;;;;;;;;;;5115574;28;20200;-67
2023/02/02 06:10:22;;;;;;;8.02;5.38;;;;;;;;;;5116156;28;20196;-67
2023/02/02 06:12:49;;;;;;;8.43;4.72;;;;;;;;;;5116392;28;20201;-67
2023/02/02 06:15:16;;;;;;;9.15;4.55;;;;;;;;;;5116782;28;20622;-67
2023/02/02 06:17:44;;;;;;;8.95;4.63;;;;;;;;;;5116591;28;20195;-67
2023/02/02 06:20:11;;;;;;;10.32;4.53;;;;;;;;;;5116303;28;20257;-67
2023/02/02 06:22:39;;;;;;;7.07;5.50;;;;;;;;;;5116318;28;20205;-67
2023/02/02 06:25:07;;;;;;;9.75;5.25;;;;;;;;;;5115768;28;20249;-67
2023/02/02 06:27:36;;;;;;;10.63;5.93;;;;;;;;;;5116322;28;20200;-67
2023/02/02 06:30:03;;;;;;;13.63;5.18;;;;;;;;;;5116442;28;20560;-67
2023/02/02 06:32:30;;;;;;;10.35;5.18;;;;;;;;;;5116034;28;20295;-67
2023/02/02 06:34:57;;;;;;;15.38;9.35;;;;;;;;;;5116080;28;20196;-67
2023/02/02 06:37:25;;;;;;;10.63;5.50;;;;;;;;;;5116130;28;20196;-67
2023/02/02 06:39:52;;;;;;;9.85;6.07;;;;;;;;;;5115877;28;20197;-66
2023/02/02 06:42:19;;;;;;;8.48;6.10;;;;;;;;;;5115721;28;20207;-67
2023/02/02 06:44:47;;;;;;;10.95;6.47;;;;;;;;;;5115932;28;20217;-68
2023/02/02 06:47:15;;;;;;;11.30;5.80;;;;;;;;;;5115672;28;20234;-67
2023/02/02 06:49:42;;;;;;;10.15;6.00;;;;;;;;;;5115964;28;20196;-67
2023/02/02 06:52:09;;;;;;;11.85;6.70;;;;;;;;;;5115893;28;20255;-68
2023/02/02 06:54:36;;;;;;;16.50;7.60;;;;;;;;;;5116050;28;20268;-67
2023/02/02 06:57:03;;;;;;;19.02;7.50;;;;;;;;;;5115685;28;20227;-67
2023/02/02 06:59:32;;;;;;;10.38;6.70;;;;;;;;;;5115941;28;20290;-68
2023/02/02 07:02:00;;;;;;;15.00;7.38;;;;;;;;;;5115872;28;20196;-68
2023/02/02 07:04:27;;;;;;;12.73;7.20;;;;;;;;;;5115219;28;20287;-67
2023/02/02 07:06:55;;;;;;;12.95;8.02;;;;;;;;;;5115302;28;20258;-68
2023/02/02 07:09:22;;;;;;;11.98;8.80;;;;;;;;;;5115560;28;20216;-67
2023/02/02 07:11:49;;;;;;;15.25;7.72;;;;;;;;;;5115330;28;20205;-68
2023/02/02 07:14:16;;;;;;;17.80;7.90;;;;;;;;;;5115388;28;20230;-67
2023/02/02 07:16:43;;;;;;;18.02;8.10;;;;;;;;;;5115949;28;20288;-67
2023/02/02 07:19:12;;;;;;;17.88;8.88;;;;;;;;;;5115232;28;20206;-67
2023/02/02 07:21:39;;;;;;;15.93;8.02;;;;;;;;;;5115444;28;20273;-67
2023/02/02 07:24:07;;;;;;;16.83;7.90;;;;;;;;;;5114745;28;20191;-67
2023/02/02 07:26:35;;;;;;;12.70;7.50;;;;;;;;;;5114979;28;20263;-67
2023/02/02 07:29:03;;;;;;;10.98;6.88;;;;;;;;;;5115110;28;20210;-67
2023/02/02 07:31:30;;;;;;;9.20;4.47;;;;;;;;;;5115105;28;20290;-67
2023/02/02 07:33:58;;;;;;;7.95;4.00;;;;;;;;;;5115414;28;20201;-67
2023/02/02 07:36:26;;;;;;;11.23;4.35;;;;;;;;;;5114799;28;20200;-67
2023/02/02 07:38:56;;;;;;;12.98;4.32;;;;;;;;;;5115233;28;20199;-67
2023/02/02 07:41:23;;;;;;;8.38;4.28;;;;;;;;;;5115418;28;20602;-67
2023/02/02 07:43:51;;;;;;;8.15;4.03;;;;;;;;;;5114738;28;20204;-67
2023/02/02 07:46:18;;;;;;;9.73;4.07;;;;;;;;;;5114634;28;20218;-67
2023/02/02 07:48:46;;;;;;;7.10;4.13;;;;;;;;;;5114798;28;20724;-67
2023/02/02 07:51:13;;;;;;;9.73;3.92;;;;;;;;;;5114926;28;20202;-67
2023/02/02 07:53:45;;;;;;;18.65;5.38;;;;;;;;;;5115014;28;20561;-67
2023/02/02 07:56:13;;;;;;;12.00;4.85;;;;;;;;;;5114669;28;20199;-67
2023/02/02 07:58:41;;;;;;;12.30;4.57;;;;;;;;;;5114630;28;20639;-66
2023/02/02 08:01:09;;;;;;;7.75;3.90;;;;;;;;;;5114476;28;20206;-67
2023/02/02 08:03:37;;;;;;;9.05;4.38;;;;;;;;;;5114758;28;20203;-66
2023/02/02 08:06:09;;;;;;;8.60;3.95;;;;;;;;;;5114388;28;20225;-67
2023/02/02 08:08:37;;;;;;;5.57;3.40;;;;;;;;;;5114425;28;20283;-66
2023/02/02 08:11:05;;;;;;;10.55;4.72;;;;;;;;;;5114345;28;20199;-67
2023/02/02 08:13:32;;;;;;;7.70;4.13;;;;;;;;;;5114158;28;20201;-67
2023/02/02 08:15:59;;;;;;;7.68;3.53;;;;;;;;;;5114210;28;20216;-67
2023/02/02 08:18:27;;;;;;;6.20;3.20;;;;;;;;;;5114100;28;20202;-67
2023/02/02 08:20:54;;;;;;;6.18;3.13;;;;;;;;;;5114827;28;20200;-67
2023/02/02 08:23:22;;;;;;;7.65;3.05;;;;;;;;;;5114336;28;20189;-67
2023/02/02 08:25:50;;;;;;;8.13;3.22;;;;;;;;;;5114176;28;20226;-68
2023/02/02 08:28:18;;;;;;;13.10;3.28;;;;;;;;;;5113939;28;20234;-67
2023/02/02 08:30:46;;;;;;;11.70;3.03;;;;;;;;;;5114085;28;20226;-67
2023/02/02 08:33:13;;;;;;;11.52;4.03;;;;;;;;;;5114209;28;20199;-67
2023/02/02 08:35:41;;;;;;;7.70;3.17;;;;;;;;;;5114805;28;20208;-67
2023/02/02 08:38:08;;;;;;;6.85;2.80;;;;;;;;;;5113905;28;20200;-67
2023/02/02 08:40:35;;;;;;;7.28;2.55;;;;;;;;;;5114020;28;20199;-67
2023/02/02 08:43:03;;;;;;;4.30;2.00;;;;;;;;;;5114095;28;20646;-68
2023/02/02 08:45:31;;;;;;;8.68;2.75;;;;;;;;;;5114773;28;20192;-67
2023/02/02 08:47:59;;;;;;;6.10;2.28;;;;;;;;;;5113651;28;20226;-67
2023/02/02 08:50:26;;;;;;;3.90;2.20;;;;;;;;;;5114093;28;20223;-67
2023/02/02 08:52:53;;;;;;;5.93;2.00;;;;;;;;;;5114414;28;20230;-67
2023/02/02 08:55:20;;;;;;;4.28;1.95;;;;;;;;;;5113909;28;20203;-67
2023/02/02 08:57:48;;;;;;;2.45;1.90;;;;;;;;;;5113354;28;20229;-67
2023/02/02 09:00:15;;;;;;;7.72;1.88;;;;;;;;;;5114002;28;20202;-68
2023/02/02 09:02:44;;;;;;;7.65;2.03;;;;;;;;;;5113569;28;20206;-67
2023/02/02 09:05:11;;;;;;;3.55;2.13;;;;;;;;;;5114394;28;20201;-67
2023/02/02 09:07:38;;;;;;;7.72;2.10;;;;;;;;;;5113745;28;20225;-67
2023/02/02 09:10:05;;;;;;;7.30;2.45;;;;;;;;;;5113877;28;20193;-67
2023/02/02 09:12:33;;;;;;;4.25;2.30;;;;;;;;;;5113468;28;20235;-67
2023/02/02 09:15:00;;;;;;;8.52;2.38;;;;;;;;;;5113472;28;20194;-67
2023/02/02 09:17:28;;;;;;;2.50;2.30;;;;;;;;;;5113385;28;20210;-67
2023/02/02 09:19:57;;;;;;;3.38;2.05;;;;;;;;;;5113524;28;20198;-67
2023/02/02 09:22:24;;;;;;;6.00;2.25;;;;;;;;;;5113693;28;20219;-67
2023/02/02 09:24:51;;;;;;;8.07;2.67;;;;;;;;;;5113739;28;20202;-67
2023/02/02 09:27:18;;;;;;;6.70;2.20;;;;;;;;;;5113841;28;20220;-67
2023/02/02 09:29:46;;;;;;;5.80;2.65;;;;;;;;;;5113922;28;20202;-67
2023/02/02 09:32:13;;;;;;;4.32;2.40;;;;;;;;;;5114522;28;20196;-67
2023/02/02 09:34:40;;;;;;;8.93;2.80;;;;;;;;;;5113551;28;20206;-67
2023/02/02 09:37:09;;;;;;;6.97;2.55;;;;;;;;;;5113581;28;20192;-67
2023/02/02 09:39:36;;;;;;;11.20;3.20;;;;;;;;;;5113191;28;20294;-67
2023/02/02 09:42:13;;;;;;;5.75;2.50;;;;;;;;;;5115653;28;20195;-67
2023/02/02 09:44:55;;;;;;;5.40;2.70;;;;;;;;;;5117479;28;20187;-67
2023/02/02 09:47:24;;;;;;;5.05;2.35;;;;;;;;;;5115126;28;20218;-67
2023/02/02 09:49:56;;;;;;;3.45;2.38;;;;;;;;;;5117002;28;20200;-67
2023/02/02 09:52:27;;;;;;;10.43;2.78;;;;;;;;;;5117616;28;20187;-67
2023/02/02 09:54:56;;;;;;;7.63;3.53;;;;;;;;;;5117311;28;20188;-67
2023/02/02 09:57:26;;;;;;;9.02;2.70;;;;;;;;;;5117558;28;20223;-67
2023/02/02 09:59:54;;;;;;;6.07;2.67;;;;;;;;;;5117175;28;20192;-67
2023/02/02 10:02:23;;;;;;;8.25;3.15;;;;;;;;;;5117309;28;20199;-66
2023/02/02 10:04:52;;;;;;;8.65;2.97;;;;;;;;;;5117269;28;20196;-67
2023/02/02 10:07:20;;;;;;;8.60;3.30;;;;;;;;;;5116769;28;20215;-67
2023/02/02 10:09:49;;;;;;;9.15;3.05;;;;;;;;;;5117092;28;20279;-67
2023/02/02 10:12:21;;;;;;;5.10;2.80;;;;;;;;;;5117044;28;20198;-67
2023/02/02 10:14:51;;;;;;;5.38;3.10;;;;;;;;;;5117069;28;20181;-67
2023/02/02 10:17:26;;;;;;;7.20;3.55;;;;;;;;;;5117083;28;20284;-67
2023/02/02 10:19:55;;;;;;;5.20;3.58;;;;;;;;;;5116888;28;20545;-67
2023/02/02 10:22:25;;;;;;;6.13;3.10;;;;;;;;;;5116783;28;20199;-67
2023/02/02 10:24:54;;;;;;;6.97;2.90;;;;;;;;;;5116809;28;20561;-67
2023/02/02 10:27:24;;;;;;;5.55;2.80;;;;;;;;;;5116551;28;20220;-67
2023/02/02 10:29:54;;;;;;;9.10;2.45;;;;;;;;;;5116246;28;20193;-67
2023/02/02 10:32:24;;;;;;;7.13;2.80;;;;;;;;;;5116304;28;20646;-67
2023/02/02 10:35:06;;;;;;;7.25;2.53;;;;;;;;;;5116140;28;20203;-67
2023/02/02 10:37:37;;;;;;;4.70;2.53;;;;;;;;;;5114375;28;20291;-67
2023/02/02 10:40:20;;;;;;;11.80;3.67;;;;;;;;;;5115515;28;20192;-67
2023/02/02 10:45:44;;;;;;;11.30;3.42;;;;;;;;;;5116137;28;20238;-67
2023/02/02 10:48:15;;;;;;;8.73;3.47;;;;;;;;;;5115966;28;20320;-67
2023/02/02 10:50:43;;;;;;;3.65;3.10;;;;;;;;;;5115818;28;20185;-67
2023/02/02 10:53:13;;;;;;;8.52;3.83;;;;;;;;;;5116284;28;20226;-67
2023/02/02 10:55:44;;;;;;;7.20;3.42;;;;;;;;;;5116199;28;20211;-67
2023/02/02 10:58:18;;;;;;;4.97;3.30;;;;;;;;;;5117042;28;20234;-67
2023/02/02 11:00:49;;;;;;;5.82;2.83;;;;;;;;;;5115706;28;20179;-67
2023/02/02 11:03:23;;;;;;;4.63;3.40;;;;;;;;;;5115832;28;20660;-67
2023/02/02 11:08:36;;;;;;;10.10;3.00;;;;;;;;;;5115701;28;20203;-67
2023/02/02 11:11:11;;;;;;;9.50;3.65;;;;;;;;;;5115430;28;20195;-67
2023/02/02 11:13:41;;;;;;;3.88;2.72;;;;;;;;;;5115935;28;20188;-67
2023/02/02 11:16:22;;;;;;;6.53;3.33;;;;;;;;;;5115665;28;20204;-67
2023/02/02 11:18:50;;;;;;;5.50;3.00;;;;;;;;;;5115412;28;20215;-67
2023/02/02 11:21:21;;;;;;;6.00;2.70;;;;;;;;;;5115541;28;20196;-67
2023/02/02 11:23:52;;;;;;;5.75;3.10;;;;;;;;;;5116010;28;20224;-67
2023/02/02 11:26:21;;;;;;;6.22;3.03;;;;;;;;;;5115233;28;20198;-67
2023/02/02 11:28:49;;;;;;;7.20;3.35;;;;;;;;;;5115093;28;20677;-67
2023/02/02 11:31:30;;;;;;;11.75;3.35;;;;;;;;;;5115327;28;20191;-67
2023/02/02 11:34:08;;;;;;;4.40;2.80;;;;;;;;;;5115958;28;20188;-67
2023/02/02 11:36:36;;;;;;;3.72;2.88;;;;;;;;;;5115953;28;20591;-67
2023/02/02 11:39:16;;;;;;;4.28;2.30;;;;;;;;;;5115250;28;20195;-67
2023/02/02 11:41:45;;;;;;;9.73;3.22;;;;;;;;;;5114934;28;20202;-67
2023/02/02 11:44:17;;;;;;;10.32;3.25;;;;;;;;;;5114912;28;20215;-67
2023/02/02 11:46:47;;;;;;;8.52;3.05;;;;;;;;;;5115497;28;20184;-67
2023/02/02 11:49:17;;;;;;;7.75;3.50;;;;;;;;;;5115337;28;20270;-67
2023/02/02 11:51:56;;;;;;;10.73;3.25;;;;;;;;;;5115066;28;20224;-67
2023/02/02 11:54:27;;;;;;;9.15;3.42;;;;;;;;;;5114692;28;20183;-68
2023/02/02 11:56:57;;;;;;;8.93;3.75;;;;;;;;;;5115450;28;20226;-67
2023/02/02 11:59:29;;;;;;;7.90;3.10;;;;;;;;;;5114832;28;20234;-68
2023/02/02 12:02:21;;;;;;;6.35;3.13;;;;;;;;;;5114503;28;20193;-67
2023/02/02 12:04:49;;;;;;;5.60;2.85;;;;;;;;;;5113992;28;20197;-67
2023/02/02 12:07:23;;;;;;;14.23;3.33;;;;;;;;;;5114646;28;20226;-67
2023/02/02 12:09:50;;;;;;;4.65;2.80;;;;;;;;;;5114352;28;20196;-67
2023/02/02 12:12:27;;;;;;;13.88;3.85;;;;;;;;;;5114836;28;20198;-67
2023/02/02 12:14:59;;;;;;;7.53;3.67;;;;;;;;;;5114637;28;20183;-67
2023/02/02 12:17:31;;;;;;;7.60;3.20;;;;;;;;;;5115199;28;20212;-67
2023/02/02 12:20:20;;;;;;;7.95;3.50;;;;;;;;;;5114860;28;20188;-67
2023/02/02 12:22:54;;;;;;;7.25;2.80;;;;;;;;;;5109726;28;20646;-67
2023/02/02 12:25:32;;;;;;;9.48;3.13;;;;;;;;;;5114434;28;20192;-67
2023/02/02 12:28:05;;;;;;;6.15;3.25;;;;;;;;;;5114676;28;20223;-67
2023/02/02 12:30:34;;;;;;;5.90;3.70;;;;;;;;;;5114041;28;20209;-67
2023/02/02 12:33:07;;;;;;;5.00;2.80;;;;;;;;;;5114790;28;20193;-67
2023/02/02 12:35:49;;;;;;;5.10;3.25;;;;;;;;;;5114552;28;20275;-67
2023/02/02 12:38:18;;;;;;;7.90;2.75;;;;;;;;;;5112092;28;20634;-67
2023/02/02 12:40:58;;;;;;;8.30;3.20;;;;;;;;;;5114089;28;20198;-67
2023/02/02 12:43:32;;;;;;;6.75;3.78;;;;;;;;;;5113909;28;20180;-67
2023/02/02 12:46:10;;;;;;;5.25;3.33;;;;;;;;;;5113983;28;20185;-67
2023/02/02 12:48:44;;;;;;;9.85;3.65;;;;;;;;;;5113951;28;20210;-67
2023/02/02 12:51:21;;;;;;;11.68;3.63;;;;;;;;;;5113802;28;20404;-67
2023/02/02 12:53:57;;;;;;;9.88;4.25;;;;;;;;;;5114059;28;20184;-67
2023/02/02 12:56:28;;;;;;;17.45;5.07;;;;;;;;;;5113512;28;20226;-67
2023/02/02 12:59:03;;;;;;;12.10;5.68;;;;;;;;;;5113664;28;20194;-67
2023/02/02 13:01:42;;;;;;;11.18;4.80;;;;;;;;;;5113743;28;20650;-67
2023/02/02 13:04:21;;;;;;;18.58;5.00;;;;;;;;;;5113660;28;20185;-67
2023/02/02 13:07:05;;;;;;;7.28;4.60;;;;;;;;;;5114106;28;20269;-67
2023/02/02 13:09:34;;;;;;;14.57;4.90;;;;;;;;;;5113878;28;20850;-67
2023/02/02 13:12:03;;;;;;;11.50;5.60;;;;;;;;;;5113757;28;20199;-67
2023/02/02 13:14:33;;;;;;;10.02;4.78;;;;;;;;;;5113966;28;20219;-67
2023/02/02 13:17:01;;;;;;;8.90;4.70;;;;;;;;;;5117250;28;20206;-67
2023/02/02 13:19:32;;;;;;;12.48;4.65;;;;;;;;;;5117737;28;20298;-67
2023/02/02 13:22:01;;;;;;;12.95;4.63;;;;;;;;;;5117804;28;20641;-67
2023/02/02 13:24:30;;;;;;;8.15;5.43;;;;;;;;;;5117999;28;20196;-67
2023/02/02 13:26:58;;;;;;;10.30;5.45;;;;;;;;;;5117593;28;20242;-67
2023/02/02 13:29:30;;;;;;;9.82;6.28;;;;;;;;;;5118107;28;20226;-67
2023/02/02 13:32:00;;;;;;;17.00;5.65;;;;;;;;;;5117942;28;20181;-67
2023/02/02 13:34:29;;;;;;;7.90;5.45;;;;;;;;;;5117862;28;20191;-67
2023/02/02 13:37:01;;;;;;;11.82;6.22;;;;;;;;;;5117466;28;20292;-67
2023/02/02 13:39:33;;;;;;;9.40;5.35;;;;;;;;;;5118079;28;20620;-67
2023/02/02 13:42:01;;;;;;;6.70;5.43;;;;;;;;;;5117252;28;20663;-67
2023/02/02 13:44:31;;;;;;;9.15;5.28;;;;;;;;;;5117562;28;20217;-67
2023/02/02 13:47:04;;;;;;;11.52;5.90;;;;;;;;;;5117123;28;20197;-67
2023/02/02 13:49:34;;;;;;;10.57;6.32;;;;;;;;;;5117451;28;20307;-67
2023/02/02 13:52:17;;;;;;;11.52;7.47;;;;;;;;;;5117035;28;20202;-67
2023/02/02 13:55:05;;;;;;;15.00;9.02;;;;;;;;;;5117152;28;20181;-67
2023/02/02 13:57:59;;;;;;;16.95;7.35;;;;;;;;;;5117698;28;20568;-67
2023/02/02 14:00:29;;;;;;;10.93;6.45;;;;;;;;;;5081136;28;20239;-69
2023/02/02 14:02:58;;;;;;;10.82;6.45;;;;;;;;;;5116922;28;20670;-68
2023/02/02 14:05:27;;;;;;;14.13;8.15;;;;;;;;;;5116816;28;20203;-68
2023/02/02 14:07:56;;;;;;;8.20;6.50;;;;;;;;;;5116961;28;20219;-67
2023/02/02 14:10:25;;;;;;;9.90;7.82;;;;;;;;;;5117092;28;20242;-67
2023/02/02 14:12:53;;;;;;;9.60;6.50;;;;;;;;;;5116605;28;20200;-68
2023/02/02 14:15:20;;;;;;;10.45;6.20;;;;;;;;;;5117083;28;20203;-68
2023/02/02 14:17:53;;;;;;;9.98;6.03;;;;;;;;;;5117342;28;20292;-68
2023/02/02 14:20:38;;;;;;;7.65;6.25;;;;;;;;;;5117567;27;20232;-69
2023/02/02 14:23:32;;;;;;;7.82;5.93;;;;;;;;;;5136624;27;20184;-68
2023/02/02 14:26:06;;;;;;;9.75;6.97;;;;;;;;;;5116165;28;20231;-69
2023/02/02 14:28:44;;;;;;;10.90;7.30;;;;;;;;;;5115197;28;20223;-68
2023/02/02 14:31:33;;;;;;;8.43;6.18;;;;;;;;;;5116476;28;20199;-68
2023/02/02 14:34:18;;;;;;;8.65;6.40;;;;;;;;;;5074017;28;20206;-68
2023/02/02 14:36:53;;;;;;;9.68;7.10;;;;;;;;;;5115918;28;20202;-68
2023/02/02 14:39:26;;;;;;;11.73;6.40;;;;;;;;;;5116201;28;20215;-68
2023/02/02 14:45:07;;;;;;;8.27;6.57;;;;;;;;;;5115709;28;20265;-69
2023/02/02 14:47:48;;;;;;;9.27;6.70;;;;;;;;;;5116193;28;20260;-68
2023/02/02 14:50:17;;;;;;;8.82;7.03;;;;;;;;;;5115424;28;20178;-68
2023/02/02 14:52:44;;;;;;;10.90;6.50;;;;;;;;;;5116052;28;20206;-67
2023/02/02 14:55:22;;;;;;;10.35;6.43;;;;;;;;;;5131568;27;20192;-67
2023/02/02 14:57:54;;;;;;;15.60;8.20;;;;;;;;;;5136324;27;20317;-68
2023/02/02 15:00:22;;;;;;;18.35;8.93;;;;;;;;;;5136223;27;20202;-68
2023/02/02 15:02:52;;;;;;;16.38;9.68;;;;;;;;;;5136227;27;20191;-68
2023/02/02 15:05:39;;;;;;;17.05;8.95;;;;;;;;;;5136534;27;20556;-68
2023/02/02 15:08:07;;;;;;;16.05;11.30;;;;;;;;;;5136630;27;20246;-67
2023/02/02 15:10:58;;;;;;;24.23;11.45;;;;;;;;;;5136765;27;20195;-68
2023/02/02 15:13:26;;;;;;;19.42;10.75;;;;;;;;;;5136345;27;20195;-68